createdAt,value
2022-08-27T00:05:03.433Z,96237.59
2022-08-27T00:07:31.808Z,96263.59
2022-08-27T00:10:00.556Z,96284.00
2022-08-27T00:12:28.933Z,96189.16
2022-08-27T00:14:58.747Z,96274.19
2022-08-27T00:17:27.164Z,96226.28
2022-08-27T00:19:55.735Z,96243.50
2022-08-27T00:22:25.898Z,96255.22
2022-08-27T00:24:54.113Z,96291.88
2022-08-27T00:27:22.438Z,96279.38
2022-08-27T00:29:50.694Z,96293.03
2022-08-27T00:32:19.906Z,96207.91
2022-08-27T00:34:48.097Z,96325.63
2022-08-27T00:37:16.872Z,96282.13
2022-08-27T00:39:46.490Z,96281.69
2022-08-27T00:42:15.430Z,96314.59
2022-08-27T00:44:43.956Z,96293.13
2022-08-27T00:47:17.276Z,96327.91
2022-08-27T00:49:51.498Z,96297.13
2022-08-27T00:52:25.970Z,96339.44
2022-08-27T00:55:02.032Z,96295.03
2022-08-27T00:57:31.723Z,96339.19
2022-08-27T00:59:59.941Z,96322.78
2022-08-27T01:02:30.687Z,96329.38
2022-08-27T01:05:04.903Z,96227.03
2022-08-27T01:07:37.492Z,96306.75
2022-08-27T01:10:13.933Z,96253.41
2022-08-27T01:12:42.272Z,96291.16
2022-08-27T01:15:19.932Z,96290.84
2022-08-27T01:17:49.921Z,96316.19
2022-08-27T01:20:23.161Z,96303.06
2022-08-27T01:23:00.850Z,96296.06
2022-08-27T01:25:31.217Z,96302.41
2022-08-27T01:28:01.821Z,96356.84
2022-08-27T01:30:31.228Z,96302.34
2022-08-27T01:32:59.494Z,96323.16
2022-08-27T01:35:28.122Z,96289.03
2022-08-27T01:37:57.186Z,96305.47
2022-08-27T01:40:25.791Z,96344.81
2022-08-27T01:42:57.783Z,96207.75
2022-08-27T01:45:30.051Z,96293.03
2022-08-27T01:47:59.471Z,96319.56
2022-08-27T01:50:32.152Z,96286.28
2022-08-27T01:53:04.714Z,96314.91
2022-08-27T01:55:32.951Z,96335.31
2022-08-27T01:58:03.275Z,96278.06
2022-08-27T02:00:36.665Z,96283.00
2022-08-27T02:03:05.801Z,96300.41
2022-08-27T02:05:39.371Z,96264.69
2022-08-27T02:08:15.885Z,96255.00
2022-08-27T02:10:45.978Z,96291.53
2022-08-27T02:13:16.894Z,96289.59
2022-08-27T02:15:46.123Z,96269.03
2022-08-27T02:18:15.198Z,96307.19
2022-08-27T02:20:43.832Z,96280.59
2022-08-27T02:23:12.912Z,96246.28
2022-08-27T02:25:41.559Z,96288.22
2022-08-27T02:28:10.296Z,96294.56
2022-08-27T02:30:41.323Z,96320.44
2022-08-27T02:33:09.546Z,96330.19
2022-08-27T02:35:40.666Z,96251.97
2022-08-27T02:38:09.451Z,96264.25
2022-08-27T02:40:38.280Z,96260.00
2022-08-27T02:43:07.635Z,96304.75
2022-08-27T02:45:36.603Z,96360.34
2022-08-27T02:48:07.837Z,96271.31
2022-08-27T02:50:37.145Z,96260.38
2022-08-27T02:53:07.477Z,96321.47
2022-08-27T02:55:36.387Z,96253.59
2022-08-27T02:58:05.476Z,96288.06
2022-08-27T03:00:33.804Z,96260.78
2022-08-27T03:03:02.684Z,96304.09
2022-08-27T03:05:32.335Z,96276.34
2022-08-27T03:08:00.562Z,96304.00
2022-08-27T03:10:28.809Z,96239.97
2022-08-27T03:12:57.627Z,96271.47
2022-08-27T03:15:26.415Z,96268.50
2022-08-27T03:18:13.059Z,96235.75
2022-08-27T03:20:44.612Z,96269.03
2022-08-27T03:23:14.669Z,96244.44
2022-08-27T03:25:47.348Z,96074.84
2022-08-27T03:28:20.544Z,96269.19
2022-08-27T03:30:52.209Z,96227.47
2022-08-27T03:33:21.361Z,96268.41
2022-08-27T03:35:52.196Z,96274.78
2022-08-27T03:38:21.131Z,96249.41
2022-08-27T03:40:50.522Z,96199.38
2022-08-27T03:43:21.375Z,96271.06
2022-08-27T03:46:00.604Z,96123.88
2022-08-27T03:48:31.837Z,96273.31
2022-08-27T03:51:06.796Z,96289.16
2022-08-27T03:53:36.984Z,96313.31
2022-08-27T03:56:06.388Z,96269.94
2022-08-27T03:58:35.531Z,96239.31
2022-08-27T04:01:05.025Z,96237.06
2022-08-27T04:03:33.942Z,96245.78
2022-08-27T04:06:04.013Z,96309.19
2022-08-27T04:08:33.102Z,96321.84
2022-08-27T04:11:01.360Z,96281.72
2022-08-27T04:13:29.641Z,96242.09
2022-08-27T04:15:57.971Z,96250.22
2022-08-27T04:18:26.430Z,96272.72
2022-08-27T04:20:54.918Z,96277.88
2022-08-27T04:23:24.719Z,96310.00
2022-08-27T04:25:52.992Z,96244.44
2022-08-27T04:28:21.373Z,96312.38
2022-08-27T04:30:49.612Z,96259.41
2022-08-27T04:33:18.978Z,96288.38
2022-08-27T04:35:47.220Z,96249.53
2022-08-27T04:38:15.823Z,96276.03
2022-08-27T04:41:02.975Z,96293.13
2022-08-27T04:43:31.230Z,96223.41
2022-08-27T04:45:59.529Z,96255.75
2022-08-27T04:48:27.955Z,96192.91
2022-08-27T04:50:56.194Z,96284.13
2022-08-27T04:53:24.557Z,96237.09
2022-08-27T04:55:57.745Z,96289.44
2022-08-27T04:58:27.451Z,96232.16
2022-08-27T05:01:01.483Z,96256.63
2022-08-27T05:03:30.502Z,96290.66
2022-08-27T05:06:03.501Z,96283.25
2022-08-27T05:08:32.823Z,96272.56
2022-08-27T05:11:03.054Z,96256.81
2022-08-27T05:13:31.596Z,96226.97
2022-08-27T05:16:01.803Z,96283.25
2022-08-27T05:18:32.530Z,96282.53
2022-08-27T05:21:03.901Z,96270.75
2022-08-27T05:23:32.533Z,96243.06
2022-08-27T05:26:08.917Z,96284.28
2022-08-27T05:28:37.206Z,96293.88
2022-08-27T05:31:07.848Z,96274.34
2022-08-27T05:33:38.446Z,96298.06
2022-08-27T05:36:08.467Z,96273.47
2022-08-27T05:38:36.950Z,96232.16
2022-08-27T05:41:10.766Z,96283.53
2022-08-27T05:43:43.718Z,96270.94
2022-08-27T05:46:18.655Z,96306.00
2022-08-27T05:48:47.002Z,96226.44
2022-08-27T05:51:25.322Z,96310.34
2022-08-27T05:53:57.658Z,96258.03
2022-08-27T05:56:30.067Z,95902.25
2022-08-27T05:59:16.180Z,96288.34
2022-08-27T06:01:48.266Z,96258.56
2022-08-27T06:04:18.306Z,96289.28
2022-08-27T06:06:50.129Z,96269.19
2022-08-27T06:09:22.384Z,96272.56
2022-08-27T06:11:54.327Z,96244.34
2022-08-27T06:14:23.568Z,96185.94
2022-08-27T06:16:52.012Z,96305.63
2022-08-27T06:19:20.501Z,96255.97
2022-08-27T06:22:01.160Z,96273.22
2022-08-27T06:24:39.002Z,96268.66
2022-08-27T06:27:12.320Z,96263.53
2022-08-27T06:29:42.052Z,96257.56
2022-08-27T06:32:11.340Z,96289.69
2022-08-27T06:34:40.294Z,96283.34
2022-08-27T06:37:09.096Z,96273.56
2022-08-27T06:39:39.465Z,96274.53
2022-08-27T06:42:13.347Z,96294.06
2022-08-27T06:44:42.092Z,96188.56
2022-08-27T06:47:10.767Z,96323.56
2022-08-27T06:49:41.549Z,96175.38
2022-08-27T06:52:12.180Z,96352.59
2022-08-27T06:54:40.805Z,96334.00
2022-08-27T06:57:11.366Z,96273.75
2022-08-27T06:59:39.954Z,96295.22
2022-08-27T07:02:08.969Z,96319.28
2022-08-27T07:04:37.810Z,96293.50
2022-08-27T07:07:06.374Z,96293.53
2022-08-27T07:09:35.965Z,96175.84
2022-08-27T07:12:05.963Z,96300.13
2022-08-27T07:14:38.317Z,96293.97
2022-08-27T07:17:11.219Z,96267.19
2022-08-27T07:19:45.427Z,96310.25
2022-08-27T07:22:14.210Z,96331.44
2022-08-27T07:24:42.518Z,96317.66
2022-08-27T07:27:10.951Z,96304.63
2022-08-27T07:29:41.598Z,96349.13
2022-08-27T07:32:09.909Z,96325.13
2022-08-27T07:34:38.205Z,96309.06
2022-08-27T07:37:06.605Z,96346.69
2022-08-27T07:39:34.838Z,96313.19
2022-08-27T07:42:25.914Z,96302.25
2022-08-27T07:44:55.515Z,96280.41
2022-08-27T07:47:23.754Z,96427.81
2022-08-27T07:49:53.032Z,96324.75
2022-08-27T07:52:25.919Z,96346.25
2022-08-27T07:54:54.839Z,96341.16
2022-08-27T07:57:23.109Z,96330.22
2022-08-27T07:59:53.162Z,96334.72
2022-08-27T08:02:30.914Z,96308.56
2022-08-27T08:04:59.487Z,96340.00
2022-08-27T08:07:29.040Z,96263.13
2022-08-27T08:09:57.254Z,96391.00
2022-08-27T08:12:26.534Z,96312.19
2022-08-27T08:14:57.826Z,96375.00
2022-08-27T08:17:28.105Z,96349.84
2022-08-27T08:20:18.589Z,96330.22
2022-08-27T08:22:47.605Z,96295.19
2022-08-27T08:25:16.100Z,96349.34
2022-08-27T08:27:45.122Z,96319.97
2022-08-27T08:30:13.808Z,96329.25
2022-08-27T08:32:44.060Z,96358.56
2022-08-27T08:35:12.992Z,96386.88
2022-08-27T08:37:43.470Z,96370.81
2022-08-27T08:40:25.057Z,96368.88
2022-08-27T08:42:56.584Z,96325.25
2022-08-27T08:45:32.065Z,96334.09
2022-08-27T08:48:07.760Z,96335.78
2022-08-27T08:50:42.006Z,96338.59
2022-08-27T08:53:20.022Z,96354.78
2022-08-27T08:55:53.174Z,96311.13
2022-08-27T08:58:35.606Z,96181.75
2022-08-27T09:01:08.986Z,96234.88
2022-08-27T09:03:42.199Z,96362.41
2022-08-27T09:06:16.222Z,96333.50
2022-08-27T09:08:45.192Z,96364.50
2022-08-27T09:11:22.960Z,96360.09
2022-08-27T09:13:54.574Z,96335.41
2022-08-27T09:16:23.406Z,96320.22
2022-08-27T09:18:56.045Z,96347.94
2022-08-27T09:21:34.340Z,96382.25
2022-08-27T09:24:11.923Z,96398.34
2022-08-27T09:26:43.229Z,96335.78
2022-08-27T09:29:17.125Z,96350.06
2022-08-27T09:31:48.361Z,96391.50
2022-08-27T09:34:18.346Z,96333.72
2022-08-27T09:36:59.396Z,96331.78
2022-08-27T09:39:35.168Z,96361.88
2022-08-27T09:42:05.717Z,96363.53
2022-08-27T09:44:34.194Z,96340.25
2022-08-27T09:47:04.624Z,96332.25
2022-08-27T09:49:36.822Z,96396.50
2022-08-27T09:52:05.419Z,96346.22
2022-08-27T09:54:44.112Z,96382.47
2022-08-27T09:57:15.456Z,96384.53
2022-08-27T09:59:55.106Z,96370.09
2022-08-27T10:02:26.205Z,96331.25
2022-08-27T10:05:29.093Z,96412.09
2022-08-27T10:08:02.582Z,96389.81
2022-08-27T10:10:44.527Z,96365.88
2022-08-27T10:13:18.703Z,96398.34
2022-08-27T10:16:22.857Z,96387.06
2022-08-27T10:19:00.542Z,96407.16
2022-08-27T10:21:40.426Z,96364.53
2022-08-27T10:24:31.182Z,96398.19
2022-08-27T10:27:19.248Z,96363.88
2022-08-27T10:29:55.764Z,96354.78
2022-08-27T10:32:43.474Z,96373.13
2022-08-27T10:35:19.005Z,96344.53
2022-08-27T10:38:03.466Z,96336.44
2022-08-27T10:40:38.769Z,96417.63
2022-08-27T10:43:33.893Z,96411.34
2022-08-27T10:46:14.250Z,96384.25
2022-08-27T10:48:52.780Z,96358.75
2022-08-27T10:51:27.832Z,96355.59
2022-08-27T10:54:07.216Z,96401.63
2022-08-27T10:56:41.108Z,96354.22
2022-08-27T10:59:24.102Z,96398.84
2022-08-27T11:02:07.873Z,96373.13
2022-08-27T11:04:41.027Z,96397.06
2022-08-27T11:07:17.110Z,96384.53
2022-08-27T11:09:56.664Z,96319.47
2022-08-27T11:12:31.823Z,96378.56
2022-08-27T11:15:05.070Z,96386.56
2022-08-27T11:17:39.715Z,96348.00
2022-08-27T11:20:14.721Z,96292.00
2022-08-27T11:22:50.401Z,96375.22
2022-08-27T11:25:36.000Z,96391.53
2022-08-27T11:28:07.513Z,96384.06
2022-08-27T11:30:47.289Z,96362.38
2022-08-27T11:33:22.176Z,96391.19
2022-08-27T11:36:37.550Z,96387.06
2022-08-27T11:39:16.400Z,96402.69
2022-08-27T11:42:03.244Z,96355.13
2022-08-27T11:44:32.153Z,96363.03
2022-08-27T11:47:13.720Z,96378.81
2022-08-27T11:49:49.283Z,96389.47
2022-08-27T11:52:29.459Z,96313.72
2022-08-27T11:55:14.579Z,96368.34
2022-08-27T11:57:45.124Z,96382.81
2022-08-27T12:00:20.518Z,96382.91
2022-08-27T12:02:59.301Z,96343.63
2022-08-27T12:05:39.224Z,96407.03
2022-08-27T12:08:26.324Z,96332.59
2022-08-27T12:11:14.696Z,96393.88
2022-08-27T12:13:53.881Z,96359.09
2022-08-27T12:16:32.811Z,96370.03
2022-08-27T12:19:20.097Z,96375.72
2022-08-27T12:22:05.112Z,96374.56
2022-08-27T12:24:50.509Z,96358.56
2022-08-27T12:27:34.814Z,96275.56
2022-08-27T12:30:21.859Z,96299.88
2022-08-27T12:32:53.013Z,96310.09
2022-08-27T12:35:27.043Z,96332.56
2022-08-27T12:37:57.840Z,96336.16
2022-08-27T12:40:29.327Z,96230.75
2022-08-27T12:43:08.389Z,96255.75
2022-08-27T12:45:47.738Z,96320.38
2022-08-27T12:48:20.567Z,96358.59
2022-08-27T12:50:54.520Z,96338.47
2022-08-27T12:53:42.425Z,96346.56
2022-08-27T12:56:32.190Z,96305.78
2022-08-27T12:59:15.963Z,96266.31
2022-08-27T13:01:59.976Z,96359.59
2022-08-27T13:04:32.055Z,96281.13
2022-08-27T13:07:00.858Z,96342.31
2022-08-27T13:09:31.643Z,96326.47
2022-08-27T13:12:02.234Z,96299.47
2022-08-27T13:14:39.162Z,96341.63
2022-08-27T13:17:13.132Z,96298.56
2022-08-27T13:19:50.943Z,96345.13
2022-08-27T13:22:24.463Z,96316.34
2022-08-27T13:24:55.606Z,96328.78
2022-08-27T13:27:30.241Z,96330.09
2022-08-27T13:30:08.675Z,96335.09
2022-08-27T13:32:46.146Z,96349.25
2022-08-27T13:35:14.805Z,96294.66
2022-08-27T13:37:53.277Z,96338.53
2022-08-27T13:40:30.665Z,96341.28
2022-08-27T13:43:08.687Z,96250.94
2022-08-27T13:45:39.005Z,96351.84
2022-08-27T13:48:11.581Z,96279.78
2022-08-27T13:50:48.886Z,96280.22
2022-08-27T13:53:41.471Z,96302.19
2022-08-27T13:56:10.787Z,96265.03
2022-08-27T13:58:39.265Z,96292.69
2022-08-27T14:01:14.516Z,96344.22
2022-08-27T14:03:56.690Z,96348.13
2022-08-27T14:06:31.552Z,96289.88
2022-08-27T14:09:22.145Z,96156.16
2022-08-27T14:11:51.067Z,96299.41
2022-08-27T14:14:19.977Z,96442.06
2022-08-27T14:17:00.015Z,96298.94
2022-08-27T14:19:33.285Z,96314.88
2022-08-27T14:22:06.178Z,96219.66
2022-08-27T14:24:34.381Z,96330.69
2022-08-27T14:27:10.187Z,96337.78
2022-08-27T14:29:38.737Z,96316.50
2022-08-27T14:32:07.663Z,96334.94
2022-08-27T14:34:37.884Z,96317.34
2022-08-27T14:37:07.396Z,96302.31
2022-08-27T14:39:35.811Z,96196.53
2022-08-27T14:42:04.322Z,96331.84
2022-08-27T14:44:34.109Z,96303.38
2022-08-27T14:47:03.219Z,96300.00
2022-08-27T14:49:36.156Z,96264.84
2022-08-27T14:52:06.250Z,96300.50
2022-08-27T14:54:35.308Z,96212.22
2022-08-27T14:57:04.429Z,96161.44
2022-08-27T14:59:32.932Z,96155.25
2022-08-27T15:02:03.254Z,96232.94
2022-08-27T15:04:32.240Z,96300.31
2022-08-27T15:09:55.414Z,96301.75
2022-08-27T15:12:26.279Z,96249.13
2022-08-27T15:14:55.628Z,96314.09
2022-08-27T15:17:33.493Z,96304.31
2022-08-27T15:20:06.075Z,96292.91
2022-08-27T15:22:37.834Z,96304.00
2022-08-27T15:25:10.869Z,96304.97
2022-08-27T15:27:39.329Z,96287.69
2022-08-27T15:30:11.453Z,96290.50
2022-08-27T15:32:44.222Z,96289.78
2022-08-27T15:35:16.602Z,96304.00
2022-08-27T15:37:46.969Z,96312.63
2022-08-27T15:40:17.947Z,96302.31
2022-08-27T15:42:47.069Z,96273.16
2022-08-27T15:45:16.016Z,96331.88
2022-08-27T15:47:44.301Z,96303.81
2022-08-27T15:50:12.680Z,96270.09
2022-08-27T15:52:42.790Z,96228.38
2022-08-27T15:55:22.937Z,96294.63
2022-08-27T15:57:51.815Z,96304.38
2022-08-27T16:00:21.810Z,96254.66
2022-08-27T16:02:51.589Z,96327.81
2022-08-27T16:05:35.153Z,96258.34
2022-08-27T16:08:06.614Z,96227.88
2022-08-27T16:10:40.022Z,96328.44
2022-08-27T16:13:08.308Z,96283.28
2022-08-27T16:15:40.588Z,96236.47
2022-08-27T16:18:10.772Z,96309.94
2022-08-27T16:20:39.752Z,96290.75
2022-08-27T16:23:08.376Z,96256.47
2022-08-27T16:25:38.029Z,96331.28
2022-08-27T16:28:06.517Z,96334.06
2022-08-27T16:30:35.219Z,96284.97
2022-08-27T16:33:03.479Z,96304.56
2022-08-27T16:35:31.813Z,96299.19
2022-08-27T16:38:00.180Z,96312.44
2022-08-27T16:40:28.701Z,96285.78
2022-08-27T16:43:01.490Z,96295.78
2022-08-27T16:45:29.885Z,96260.53
2022-08-27T16:48:19.221Z,96323.88
2022-08-27T16:50:47.796Z,96321.50
2022-08-27T16:53:18.509Z,96352.97
2022-08-27T16:55:50.082Z,96310.63
2022-08-27T16:58:23.850Z,96198.84
2022-08-27T17:00:55.157Z,96300.72
2022-08-27T17:03:25.166Z,96243.03
2022-08-27T17:05:53.524Z,96212.19
2022-08-27T17:08:26.099Z,96360.91
2022-08-27T17:10:56.854Z,96340.81
2022-08-27T17:13:32.576Z,96202.19
2022-08-27T17:16:01.788Z,96295.25
2022-08-27T17:18:30.468Z,96315.16
2022-08-27T17:21:00.268Z,96328.34
2022-08-27T17:23:35.340Z,96308.91
2022-08-27T17:26:06.205Z,96348.34
2022-08-27T17:28:36.240Z,96350.22
2022-08-27T17:31:04.671Z,96346.72
2022-08-27T17:33:36.939Z,96411.41
2022-08-27T17:36:06.516Z,96316.16
2022-08-27T17:38:37.735Z,96343.94
2022-08-27T17:41:12.862Z,96342.31
2022-08-27T17:43:44.068Z,96162.66
2022-08-27T17:46:13.724Z,96343.16
2022-08-27T17:48:42.288Z,96339.75
2022-08-27T17:51:12.524Z,96327.31
2022-08-27T17:53:47.953Z,96417.28
2022-08-27T17:56:18.636Z,96306.06
2022-08-27T17:58:49.178Z,96369.44
2022-08-27T18:01:28.153Z,96357.69
2022-08-27T18:06:53.765Z,96337.22
2022-08-27T18:09:22.398Z,96351.88
2022-08-27T18:11:50.827Z,96383.88
2022-08-27T18:14:21.164Z,96357.94
2022-08-27T18:16:49.589Z,96393.75
2022-08-27T18:19:17.901Z,96397.38
2022-08-27T18:21:46.387Z,96338.50
2022-08-27T18:24:16.454Z,96344.22
2022-08-27T18:26:45.569Z,96395.72
2022-08-27T18:29:15.609Z,96371.88
2022-08-27T18:31:45.688Z,96381.44
2022-08-27T18:34:18.833Z,96398.63
2022-08-27T18:36:49.195Z,96409.31
2022-08-27T18:39:17.428Z,96398.84
2022-08-27T18:41:45.758Z,96431.31
2022-08-27T18:44:17.461Z,96364.06
2022-08-27T18:46:47.977Z,96413.00
2022-08-27T18:49:16.201Z,96404.41
2022-08-27T18:51:48.179Z,96399.28
2022-08-27T18:54:17.808Z,96433.59
2022-08-27T18:56:46.038Z,96414.13
2022-08-27T18:59:15.550Z,96407.56
2022-08-27T19:01:44.805Z,96381.63
2022-08-27T19:04:16.493Z,96422.22
2022-08-27T19:06:44.768Z,96475.41
2022-08-27T19:09:14.070Z,96406.22
2022-08-27T19:11:42.343Z,96423.13
2022-08-27T19:14:10.762Z,96381.19
2022-08-27T19:16:46.804Z,96476.88
2022-08-27T19:19:18.273Z,96490.53
2022-08-27T19:21:51.208Z,96461.25
2022-08-27T19:24:20.736Z,96432.47
2022-08-27T19:26:49.660Z,96362.75
2022-08-27T19:29:18.542Z,96466.94
2022-08-27T19:31:48.331Z,96413.13
2022-08-27T19:34:18.177Z,96466.44
2022-08-27T19:36:46.548Z,96447.97
2022-08-27T19:39:14.892Z,96482.28
2022-08-27T19:41:43.413Z,96469.81
2022-08-27T19:44:11.678Z,96460.34
2022-08-27T19:46:40.031Z,96467.34
2022-08-27T19:49:08.268Z,96470.72
2022-08-27T19:51:38.244Z,96447.28
2022-08-27T19:54:06.622Z,96449.28
2022-08-27T19:56:34.841Z,96439.69
2022-08-27T19:59:13.620Z,96497.13
2022-08-27T20:01:49.693Z,96476.44
2022-08-27T20:04:18.003Z,96481.72
2022-08-27T20:06:47.870Z,96501.66
2022-08-27T20:09:17.999Z,96465.50
2022-08-27T20:11:47.564Z,96445.66
2022-08-27T20:14:16.048Z,96436.41
2022-08-27T20:16:46.252Z,96456.34
2022-08-27T20:19:16.101Z,96455.13
2022-08-27T20:21:44.840Z,96431.19
2022-08-27T20:24:14.604Z,96439.25
2022-08-27T20:26:43.028Z,96464.72
2022-08-27T20:29:11.791Z,96437.16
2022-08-27T20:31:43.466Z,96463.84
2022-08-27T20:34:12.242Z,96385.47
2022-08-27T20:36:40.553Z,96533.09
2022-08-27T20:39:08.826Z,96470.22
2022-08-27T20:41:38.447Z,96428.69
2022-08-27T20:44:08.802Z,96428.69
2022-08-27T20:46:38.673Z,96412.88
2022-08-27T20:49:08.012Z,96427.31
2022-08-27T20:51:51.107Z,96432.53
2022-08-27T20:54:25.417Z,96457.75
2022-08-27T20:56:55.020Z,96494.81
2022-08-27T20:59:40.936Z,96490.09
2022-08-27T21:02:12.865Z,96462.81
2022-08-27T21:04:45.622Z,96417.31
2022-08-27T21:07:14.217Z,96432.06
2022-08-27T21:09:56.302Z,96438.63
2022-08-27T21:12:27.928Z,96342.84
2022-08-27T21:14:58.025Z,96449.53
2022-08-27T21:17:29.452Z,96427.34
2022-08-27T21:19:57.825Z,96407.88
2022-08-27T21:22:26.958Z,96454.41
2022-08-27T21:24:55.746Z,96403.78
2022-08-27T21:27:26.166Z,96464.97
2022-08-27T21:29:54.632Z,96414.78
2022-08-27T21:32:23.129Z,96426.81
2022-08-27T21:34:52.137Z,96460.59
2022-08-27T21:37:20.582Z,96461.78
2022-08-27T21:39:49.035Z,96464.72
2022-08-27T21:42:18.037Z,96455.53
2022-08-27T21:44:47.647Z,96458.25
2022-08-27T21:47:15.935Z,96494.66
2022-08-27T21:49:44.707Z,96498.97
2022-08-27T21:52:13.084Z,96420.50
2022-08-27T21:54:42.910Z,96544.44
2022-08-27T21:57:14.248Z,96475.84
2022-08-27T21:59:48.102Z,96512.28
2022-08-27T22:02:38.834Z,96419.25
2022-08-27T22:05:07.729Z,96483.56
2022-08-27T22:07:35.960Z,96499.28
2022-08-27T22:10:04.740Z,96477.13
2022-08-27T22:12:33.021Z,96454.56
2022-08-27T22:15:02.833Z,96459.84
2022-08-27T22:17:31.103Z,96436.69
2022-08-27T22:19:59.427Z,96422.44
2022-08-27T22:22:30.754Z,96455.81
2022-08-27T22:24:59.201Z,96453.78
2022-08-27T22:27:27.833Z,96500.41
2022-08-27T22:29:56.123Z,96480.81
2022-08-27T22:32:25.740Z,96482.66
2022-08-27T22:34:54.114Z,96417.66
2022-08-27T22:37:22.438Z,96338.75
2022-08-27T22:39:50.708Z,96473.75
2022-08-27T22:42:20.531Z,96489.16
2022-08-27T22:44:48.807Z,96411.53
2022-08-27T22:47:17.098Z,96530.34
2022-08-27T22:49:46.670Z,96516.81
2022-08-27T22:52:15.444Z,96466.47
2022-08-27T22:54:44.123Z,96481.41
2022-08-27T22:57:12.649Z,96501.09
2022-08-27T22:59:41.366Z,96446.63
2022-08-27T23:02:11.039Z,96395.44
2022-08-27T23:04:54.661Z,96513.81
2022-08-27T23:07:25.456Z,96471.63
2022-08-27T23:09:53.672Z,96471.19
2022-08-27T23:12:22.741Z,96485.56
2022-08-27T23:14:51.019Z,96462.84
2022-08-27T23:17:21.406Z,96467.94
2022-08-27T23:19:49.697Z,96480.28
2022-08-27T23:22:18.080Z,96472.06
2022-08-27T23:25:05.366Z,96522.66
2022-08-27T23:27:33.682Z,96454.66
2022-08-27T23:30:04.861Z,96463.34
2022-08-27T23:32:33.302Z,96474.59
2022-08-27T23:35:01.885Z,96494.00
2022-08-27T23:37:30.161Z,96452.28
2022-08-27T23:39:59.859Z,96504.31
2022-08-27T23:42:28.143Z,96567.91
2022-08-27T23:44:56.364Z,96476.06
2022-08-27T23:47:24.605Z,96465.88
2022-08-27T23:49:52.826Z,96493.69
2022-08-27T23:52:21.097Z,96480.59
2022-08-27T23:54:49.324Z,96488.41
2022-08-27T23:57:18.984Z,96511.31
2022-08-27T23:59:47.234Z,96477.84
